Latest Weather Observations for Smithville

IDN60801

Issued at 9:12 pm EDT Friday 16 November 2018 (issued every 10 minutes, with the page automatically refreshed every 10 minutes)

About weather observations | Map of weather stations | Latest weather observations for NSW | Other Formats
Station Details ID: 046142 Name: SMITHVILLE AWS Lat: -30.07 Lon: 141.01 Height: 94.0 m
Data from the previous 72 hours. | See also: Recent months at Smithville
Date/Time
EDT
Temp
°C
App
Temp
°C
Dew
Point
°C
Rel
Hum
%
Delta-T
°C
Wind Press
QNH
hPa
Press
MSL
hPa
Rain since
9am
mm
Dir  Spd
km/h
Gust
km/h
Spd
kts
Gust
kts
16/09:00pm 28.1 - -2.9 13 13.9 - - - - - - - 0.0
16/08:30pm 29.1 - -3.2 12 14.5 - - - - - - - 0.0
16/08:00pm 30.2 - -2.3 12 15.0 - - - - - - - 0.0
16/07:30pm 31.3 - -1.5 12 15.5 - - - - - - - 0.0
16/07:00pm 31.8 - -1.1 12 15.7 - - - - - - - 0.0
16/06:30pm 32.0 - -0.9 12 15.7 - - - - - - - 0.0
16/06:00pm 32.7 - -1.6 11 16.3 - - - - - - - 0.0
16/05:30pm 32.6 - -1.7 11 16.3 - - - - - - - 0.0
16/05:00pm 32.4 - -0.6 12 15.9 - - - - - - - 0.0
16/04:30pm 32.8 - -0.3 12 16.1 - - - - - - - 0.0
16/04:00pm 32.3 - 0.4 13 15.6 - - - - - - - 0.0
16/03:30pm 32.6 - 0.6 13 15.8 - - - - - - - 0.0
16/03:00pm 32.9 - 0.9 13 15.9 - - - - - - - 0.0
16/02:30pm 32.0 - 1.2 14 15.3 - - - - - - - 0.0
16/02:00pm 32.9 - 0.9 13 15.9 - - - - - - - 0.0
16/01:30pm 32.2 - 1.3 14 15.4 - - - - - - - 0.0
16/01:00pm 30.7 - 2.0 16 14.3 - - - - - - - 0.0
16/12:30pm 30.0 - 1.5 16 14.0 - - - - - - - 0.0
16/12:00pm 29.8 - 2.1 17 13.8 - - - - - - - 0.0
16/11:30am 29.5 - 2.7 18 13.4 - - - - - - - 0.0
16/11:00am 29.3 - 4.0 20 12.9 - - - - - - - 0.0
16/10:30am 29.1 - 4.6 21 12.6 - - - - - - - 0.0
16/10:00am 27.7 - 4.7 23 11.8 - - - - - - - 0.0
16/09:30am 26.1 - 4.0 24 11.1 - - - - - - - 0.0
16/09:00am 25.2 - 4.3 26 10.5 - - - - - - - 0.0
16/08:30am 23.3 - 3.8 28 9.6 - - - - - - - 0.0
16/08:00am 21.9 - 4.0 31 8.7 - - - - - - - 0.0
16/07:30am 20.6 - 4.2 34 7.9 - - - - - - - 0.0
16/07:00am 19.5 - 4.8 38 7.1 - - - - - - - 0.0
16/06:30am 19.3 - 5.4 40 6.8 - - - - - - - 0.0
16/06:00am 19.9 - 5.2 38 7.2 - - - - - - - 0.0
16/05:30am 20.3 - 5.1 37 7.5 - - - - - - - 0.0
16/05:00am 21.0 - 5.4 36 7.8 - - - - - - - 0.0
16/04:30am 21.1 - 6.2 38 7.5 - - - - - - - 0.0
16/04:00am 21.4 - 6.5 38 7.6 - - - - - - - 0.0
16/03:30am 22.1 - 6.7 37 7.9 - - - - - - - 0.0
16/03:00am 22.5 - 7.1 37 8.0 - - - - - - - 0.0
16/02:30am 22.7 - 7.7 38 7.9 - - - - - - - 0.0
16/02:00am 23.2 - 7.7 37 8.2 - - - - - - - 0.0
16/01:30am 23.4 - 8.7 39 7.9 - - - - - - - 0.0
16/01:00am 23.8 - 8.6 38 8.2 - - - - - - - 0.0
16/12:30am 24.5 - 8.5 36 8.6 - - - - - - - 0.0
16/12:00am 25.1 - 8.6 35 8.9 - - - - - - - 0.0
 
Date/Time
EDT
Temp
°C
App
Temp
°C
Dew
Point
°C
Rel
Hum
%
Delta-T
°C
Wind Press
QNH
hPa
Press
MSL
hPa
Rain since
9am
mm
Dir  Spd
km/h
Gust
km/h
Spd
kts
Gust
kts
15/11:30pm 25.9 - 8.4 33 9.5 - - - - - - - 0.0
15/11:00pm 26.4 - 8.4 32 9.8 - - - - - - - 0.0
15/10:30pm 26.7 - 8.6 32 9.9 - - - - - - - 0.0
15/10:00pm 27.4 - 8.8 31 10.2 - - - - - - - 0.0
15/09:30pm 27.9 - 9.7 32 10.2 - - - - - - - 0.0
15/09:00pm 28.2 - 9.5 31 10.4 - - - - - - - 0.0
15/08:30pm 29.0 - 9.2 29 11.0 - - - - - - - 0.0
15/08:00pm 29.8 - 9.3 28 11.5 - - - - - - - 0.0
15/07:30pm 30.7 - 9.0 26 12.2 - - - - - - - 0.0
15/07:00pm 31.1 - 9.3 26 12.3 - - - - - - - 0.0
15/06:30pm 31.8 - 9.3 25 12.7 - - - - - - - 0.0
15/06:00pm 31.7 - 9.3 25 12.7 - - - - - - - 0.0
15/05:30pm 31.5 - 9.7 26 12.4 - - - - - - - 0.0
15/05:00pm 32.6 - 9.4 24 13.2 - - - - - - - 0.0
15/04:30pm 32.7 - 9.5 24 13.2 - - - - - - - 0.0
15/04:00pm 31.5 - 9.1 25 12.6 - - - - - - - 0.0
15/03:30pm 31.3 - 9.5 26 12.3 - - - - - - - 0.0
15/03:00pm 31.1 - 9.3 26 12.3 - - - - - - - 0.0
15/02:30pm 30.2 - 9.1 27 11.8 - - - - - - - 0.0
15/02:00pm 29.5 - 9.1 28 11.4 - - - - - - - 0.0
15/01:30pm 29.2 - 9.3 29 11.1 - - - - - - - 0.0
15/01:00pm 28.3 - 9.1 30 10.6 - - - - - - - 0.0
15/12:30pm 27.6 - 9.0 31 10.3 - - - - - - - 0.0
15/12:00pm 26.8 - 9.2 33 9.7 - - - - - - - 0.0
15/11:30am 26.3 - 8.8 33 9.6 - - - - - - - 0.0
15/11:00am 25.9 - 9.3 35 9.1 - - - - - - - 0.0
15/10:30am 24.3 - 8.3 36 8.6 - - - - - - - 0.0
15/10:00am 23.7 - 8.9 39 8.0 - - - - - - - 0.0
15/09:30am 23.0 - 8.7 40 7.7 - - - - - - - 0.0
15/09:00am 22.7 - 9.1 42 7.3 - - - - - - - 0.0
15/08:30am 22.1 - 9.3 44 6.9 - - - - - - - 0.0
15/08:00am 21.7 - 9.3 45 6.7 - - - - - - - 0.0
15/07:30am 21.3 - 9.2 46 6.5 - - - - - - - 0.0
15/07:00am 21.2 - 9.4 47 6.3 - - - - - - - 0.0
15/06:30am 21.6 - 9.5 46 6.5 - - - - - - - 0.0
15/06:00am 21.6 - 13.2 59 4.8 - - - - - - - 0.0
15/05:30am 21.8 - 14.2 62 4.5 - - - - - - - 0.0
15/05:00am 22.5 - 14.6 61 4.7 - - - - - - - 0.0
15/04:30am 22.2 - 15.5 66 4.0 - - - - - - - 0.0
15/04:00am 22.4 - 16.4 69 3.7 - - - - - - - 0.0
15/03:30am 23.0 - 16.1 65 4.2 - - - - - - - 0.0
15/03:00am 23.7 - 16.2 63 4.6 - - - - - - - 0.0
15/02:30am 23.7 - 16.5 64 4.4 - - - - - - - 0.0
15/02:00am 23.9 - 16.4 63 4.6 - - - - - - - 0.0
15/01:30am 24.6 - 16.3 60 5.1 - - - - - - - 0.0
15/01:00am 25.1 - 16.8 60 5.1 - - - - - - - 0.0
15/12:30am 25.2 - 17.7 63 4.7 - - - - - - - 0.0
15/12:00am 25.7 - 17.4 60 5.2 - - - - - - - 0.0
 
Date/Time
EDT
Temp
°C
App
Temp
°C
Dew
Point
°C
Rel
Hum
%
Delta-T
°C
Wind Press
QNH
hPa
Press
MSL
hPa
Rain since
9am
mm
Dir  Spd
km/h
Gust
km/h
Spd
kts
Gust
kts
14/11:30pm 25.7 - 17.4 60 5.2 - - - - - - - 0.0
14/11:00pm 25.2 - 17.4 62 4.9 - - - - - - - 0.0
14/10:30pm 25.1 - 17.6 63 4.7 - - - - - - - 0.0
14/10:00pm 25.8 - 16.4 56 5.8 - - - - - - - 0.0
14/09:30pm 26.2 - 16.2 54 6.2 - - - - - - - 0.0
14/09:00pm 26.5 - 16.1 52 6.4 - - - - - - - 0.0
14/08:30pm 26.4 - 16.1 53 6.3 - - - - - - - 0.0
14/08:00pm 27.3 - 15.0 47 7.5 - - - - - - - 0.0
14/07:30pm 25.9 - 17.8 61 5.1 - - - - - - - 0.0
14/07:00pm 27.6 - 15.9 49 7.2 - - - - - - - 0.0
14/06:30pm 32.1 - 11.3 28 12.2 - - - - - - - 0.0
14/06:00pm 32.7 - 11.8 28 12.3 - - - - - - - 0.0
14/05:30pm 33.3 - 11.8 27 12.7 - - - - - - - 0.0
14/05:00pm 32.9 - 12.5 29 12.2 - - - - - - - 0.0
14/04:30pm 33.5 - 12.5 28 12.6 - - - - - - - 0.0
14/04:00pm 32.6 - 12.8 30 11.9 - - - - - - - 0.0
14/03:30pm 32.7 - 12.9 30 11.9 - - - - - - - 0.0
14/03:00pm 32.8 - 13.4 30 11.7 - - - - - - - 0.0
14/02:30pm 32.1 - 13.8 33 11.1 - - - - - - - 0.0
14/02:00pm 31.3 - 14.0 35 10.5 - - - - - - - 0.0
14/01:30pm 30.6 - 15.5 40 9.4 - - - - - - - 0.0
14/01:00pm 30.3 - 15.6 41 9.1 - - - - - - - 0.0
14/12:30pm 29.4 - 15.1 41 8.8 - - - - - - - 0.0
14/12:00pm 29.4 - 16.2 44 8.2 - - - - - - - 0.0
14/11:30am 28.5 - 16.1 47 7.7 - - - - - - - 0.0
14/11:00am 27.2 - 16.2 51 6.8 - - - - - - - 0.0
14/10:30am 26.1 - 16.4 55 6.0 - - - - - - - 0.0
14/10:00am 25.6 - 17.0 59 5.4 - - - - - - - 0.0
14/09:30am 24.8 - 17.5 64 4.6 - - - - - - - 0.0
14/09:00am 23.8 - 17.3 67 4.0 - - - - - - - 2.2
14/08:30am 22.9 - 17.1 70 3.6 - - - - - - - 2.2
14/08:00am 21.8 - 17.4 76 2.7 - - - - - - - 2.2
14/07:30am 20.5 - 16.9 80 2.2 - - - - - - - 2.2
14/07:00am 18.8 - 16.8 88 1.2 - - - - - - - 2.2
14/06:30am 17.7 - 16.2 91 0.9 - - - - - - - 2.2
14/06:00am 17.6 - 16.3 92 0.8 - - - - - - - 2.2
14/05:30am 17.8 - 16.5 92 0.8 - - - - - - - 2.2
14/05:00am 18.0 - 16.9 93 0.7 - - - - - - - 2.2
14/04:30am 18.5 - 16.8 90 1.0 - - - - - - - 2.2
14/04:00am 19.3 - 16.7 85 1.6 - - - - - - - 2.2
14/03:30am 20.3 - 16.5 79 2.3 - - - - - - - 2.2
14/03:00am 20.7 - 17.3 81 2.1 - - - - - - - 2.2
14/02:30am 19.8 - 17.4 86 1.5 - - - - - - - 2.2
14/02:00am 19.8 - 17.9 89 1.2 - - - - - - - 2.2
14/01:30am 20.8 - 17.6 82 2.0 - - - - - - - 2.2
14/01:00am 20.6 - 18.2 86 1.5 - - - - - - - 2.2
14/12:30am 21.3 - 18.1 82 2.0 - - - - - - - 2.2
14/12:00am 20.7 - 18.6 88 1.3 - - - - - - - 2.2
 
Date/Time
EDT
Temp
°C
App
Temp
°C
Dew
Point
°C
Rel
Hum
%
Delta-T
°C
Wind Press
QNH
hPa
Press
MSL
hPa
Rain since
9am
mm
Dir  Spd
km/h
Gust
km/h
Spd
kts
Gust
kts
13/11:30pm 21.4 - 17.6 79 2.4 - - - - - - - 1.8
13/11:00pm 23.6 - 16.4 64 4.4 - - - - - - - 1.8
13/10:30pm 23.1 - 16.9 68 3.8 - - - - - - - 1.8
13/10:00pm 23.5 - 16.3 64 4.4 - - - - - - - 1.8
13/09:30pm 24.0 - 16.3 62 4.7 - - - - - - - 1.8

Other Formats:

Comma delimited format used in spreadsheet applications
http://www.bom.gov.au/fwo/IDN60801/IDN60801.94796.axf

JavaScript Object Notation format (JSON) in row-major order
http://www.bom.gov.au/fwo/IDN60801/IDN60801.94796.json